createdAt,value
2022-07-26T00:00:23.703Z,24.30
2022-07-26T00:02:50.065Z,18.10
2022-07-26T00:05:03.145Z,30.60
2022-07-26T00:07:16.220Z,25.40
2022-07-26T00:09:29.188Z,21.90
2022-07-26T00:11:42.356Z,25.50
2022-07-26T00:13:55.516Z,16.20
2022-07-26T00:16:10.277Z,29.00
2022-07-26T00:18:23.906Z,29.90
2022-07-26T00:20:38.086Z,24.80
2022-07-26T00:22:51.993Z,47.70
2022-07-26T00:25:05.175Z,29.20
2022-07-26T00:27:18.580Z,26.00
2022-07-26T00:29:31.577Z,27.30
2022-07-26T00:31:44.858Z,26.80
2022-07-26T00:33:57.936Z,30.00
2022-07-26T00:36:12.078Z,25.50
2022-07-26T00:38:25.135Z,38.40
2022-07-26T00:40:38.306Z,25.90
2022-07-26T00:42:51.398Z,33.10
2022-07-26T00:45:04.494Z,40.70
2022-07-26T00:47:18.075Z,33.00
2022-07-26T00:49:31.020Z,32.20
2022-07-26T00:51:46.462Z,28.70
2022-07-26T00:53:59.784Z,47.20
2022-07-26T00:56:13.196Z,38.00
2022-07-26T00:58:26.202Z,26.70
2022-07-26T01:00:39.384Z,30.60
2022-07-26T01:02:53.257Z,14.70
2022-07-26T01:05:06.777Z,31.20
2022-07-26T01:07:20.110Z,38.00
2022-07-26T01:09:33.514Z,43.50
2022-07-26T01:11:47.129Z,40.20
2022-07-26T01:14:00.155Z,29.00
2022-07-26T01:16:13.874Z,41.50
2022-07-26T01:18:26.984Z,52.80
2022-07-26T01:20:40.090Z,35.80
2022-07-26T01:22:53.541Z,47.40
2022-07-26T01:25:06.800Z,45.60
2022-07-26T01:27:19.911Z,34.60
2022-07-26T01:29:35.409Z,48.60
2022-07-26T01:31:49.509Z,36.00
2022-07-26T01:34:02.759Z,32.60
2022-07-26T01:36:16.066Z,29.40
2022-07-26T01:38:29.071Z,35.20
2022-07-26T01:40:42.001Z,25.70
2022-07-26T01:42:55.016Z,32.40
2022-07-26T01:45:08.330Z,24.60
2022-07-26T01:47:21.437Z,31.70
2022-07-26T01:49:34.795Z,45.20
2022-07-26T01:51:47.800Z,35.70
2022-07-26T01:54:00.860Z,38.30
2022-07-26T01:56:14.473Z,35.70
2022-07-26T01:58:27.781Z,45.30
2022-07-26T02:00:40.937Z,45.50
2022-07-26T02:02:54.048Z,47.30
2022-07-26T02:05:07.303Z,31.60
2022-07-26T02:07:20.385Z,43.80
2022-07-26T02:09:39.600Z,54.40
2022-07-26T02:11:52.991Z,34.20
2022-07-26T02:14:06.536Z,43.60
2022-07-26T02:16:21.064Z,38.80
2022-07-26T02:18:35.107Z,33.80
2022-07-26T02:20:48.112Z,46.70
2022-07-26T02:23:01.219Z,47.90
2022-07-26T02:25:15.161Z,38.50
2022-07-26T02:27:28.227Z,45.00
2022-07-26T02:29:41.301Z,56.60
2022-07-26T02:31:55.095Z,52.90
2022-07-26T02:34:08.327Z,58.30
2022-07-26T02:36:21.618Z,40.10
2022-07-26T02:38:35.888Z,44.30
2022-07-26T02:40:51.652Z,34.20
2022-07-26T02:43:04.740Z,43.80
2022-07-26T02:45:18.077Z,45.70
2022-07-26T02:47:31.723Z,46.90
2022-07-26T02:49:44.885Z,43.40
2022-07-26T02:51:57.863Z,46.10
2022-07-26T02:54:11.646Z,59.70
2022-07-26T02:56:25.452Z,57.40
2022-07-26T02:58:38.493Z,70.20
2022-07-26T03:00:51.665Z,49.00
2022-07-26T03:03:04.700Z,50.00
2022-07-26T03:05:18.620Z,69.10
2022-07-26T03:07:31.849Z,55.80
2022-07-26T03:09:44.912Z,49.90
2022-07-26T03:11:58.379Z,43.10
2022-07-26T03:14:11.948Z,50.10
2022-07-26T03:16:29.386Z,37.60
2022-07-26T03:18:42.702Z,38.00
2022-07-26T03:20:56.524Z,41.20
2022-07-26T03:23:09.597Z,59.00
2022-07-26T03:25:22.740Z,44.10
2022-07-26T03:27:35.723Z,52.30
2022-07-26T03:29:48.759Z,47.30
2022-07-26T03:32:01.849Z,52.50
2022-07-26T03:34:14.938Z,54.00
2022-07-26T03:36:28.541Z,55.20
2022-07-26T03:38:41.748Z,67.40
2022-07-26T03:40:54.832Z,56.10
2022-07-26T03:43:08.032Z,61.10
2022-07-26T03:45:21.836Z,56.30
2022-07-26T03:47:34.846Z,67.20
2022-07-26T03:49:47.823Z,52.30
2022-07-26T03:52:00.853Z,49.50
2022-07-26T03:54:14.855Z,48.60
2022-07-26T03:56:34.820Z,44.30
2022-07-26T03:58:47.883Z,59.10
2022-07-26T04:01:01.202Z,80.20
2022-07-26T04:03:14.423Z,84.10
2022-07-26T04:05:27.519Z,124.30
2022-07-26T04:07:51.511Z,125.30
2022-07-26T04:10:05.907Z,133.00
2022-07-26T04:12:19.125Z,139.70
2022-07-26T04:14:32.607Z,156.30
2022-07-26T04:16:45.737Z,143.50
2022-07-26T04:18:58.927Z,140.40
2022-07-26T04:21:12.371Z,145.70
2022-07-26T04:23:25.515Z,152.30
2022-07-26T04:25:41.424Z,144.40
2022-07-26T04:27:54.742Z,131.50
2022-07-26T04:30:14.034Z,137.80
2022-07-26T04:32:44.228Z,111.50
2022-07-26T04:35:00.638Z,109.80
2022-07-26T04:37:13.670Z,96.10
2022-07-26T04:39:27.004Z,108.00
2022-07-26T04:41:40.048Z,150.40
2022-07-26T04:43:53.132Z,133.20
2022-07-26T04:46:06.719Z,120.60
2022-07-26T04:48:20.252Z,100.90
2022-07-26T04:50:33.388Z,89.60
2022-07-26T04:52:46.459Z,76.10
2022-07-26T04:55:00.093Z,61.50
2022-07-26T04:57:13.132Z,65.10
2022-07-26T04:59:26.148Z,46.60
2022-07-26T05:01:39.248Z,105.10
2022-07-26T05:03:52.269Z,264.10
2022-07-26T05:06:05.422Z,381.80
2022-07-26T05:08:20.942Z,343.50
2022-07-26T05:10:37.635Z,298.40
2022-07-26T05:12:51.620Z,256.10
2022-07-26T05:15:04.738Z,247.50
2022-07-26T05:17:18.110Z,233.50
2022-07-26T05:19:33.300Z,179.50
2022-07-26T05:21:46.429Z,175.10
2022-07-26T05:23:59.651Z,156.20
2022-07-26T05:26:14.238Z,138.60
2022-07-26T05:28:27.395Z,89.30
2022-07-26T05:30:40.453Z,49.40
2022-07-26T05:32:53.709Z,52.50
2022-07-26T05:35:06.768Z,52.70
2022-07-26T05:37:19.811Z,50.10
2022-07-26T05:39:33.504Z,57.80
2022-07-26T05:41:46.533Z,88.50
2022-07-26T05:44:00.162Z,114.60
2022-07-26T05:46:13.604Z,112.30
2022-07-26T05:48:26.779Z,105.00
2022-07-26T05:50:40.027Z,98.10
2022-07-26T05:52:53.030Z,98.70
2022-07-26T05:55:06.156Z,96.90
2022-07-26T05:57:19.096Z,93.60
2022-07-26T05:59:32.363Z,82.50
2022-07-26T06:01:45.431Z,105.00
2022-07-26T06:03:58.605Z,201.10
2022-07-26T06:06:12.665Z,188.10
2022-07-26T06:08:26.813Z,240.10
2022-07-26T06:10:39.851Z,230.30
2022-07-26T06:12:53.150Z,235.90
2022-07-26T06:15:15.380Z,224.00
2022-07-26T06:17:31.248Z,184.30
2022-07-26T06:19:47.514Z,166.50
2022-07-26T06:22:00.909Z,131.80
2022-07-26T06:24:14.468Z,92.00
2022-07-26T06:26:27.638Z,78.10
2022-07-26T06:28:41.111Z,67.60
2022-07-26T06:30:54.162Z,66.80
2022-07-26T06:33:07.631Z,79.70
2022-07-26T06:35:21.989Z,80.10
2022-07-26T06:37:35.107Z,84.80
2022-07-26T06:39:50.366Z,83.30
2022-07-26T06:42:03.434Z,156.50
2022-07-26T06:44:16.514Z,416.40
2022-07-26T06:46:29.650Z,450.80
2022-07-26T06:48:47.454Z,454.90
2022-07-26T06:51:06.509Z,394.00
2022-07-26T06:53:19.568Z,357.20
2022-07-26T06:55:32.643Z,300.10
2022-07-26T06:57:50.392Z,288.30
2022-07-26T07:00:03.817Z,247.80
2022-07-26T07:02:16.883Z,146.80
2022-07-26T07:04:30.141Z,120.40
2022-07-26T07:06:43.204Z,128.70
2022-07-26T07:08:58.517Z,136.50
2022-07-26T07:11:12.507Z,143.00
2022-07-26T07:13:26.336Z,150.40
2022-07-26T07:15:39.546Z,141.80
2022-07-26T07:17:52.859Z,134.00
2022-07-26T07:20:06.863Z,125.50
2022-07-26T07:22:19.925Z,113.10
2022-07-26T07:24:32.946Z,116.20
2022-07-26T07:26:46.145Z,123.10
2022-07-26T07:28:59.072Z,118.20
2022-07-26T07:31:17.450Z,108.60
2022-07-26T07:33:36.745Z,117.40
2022-07-26T07:36:05.382Z,42.70
2022-07-26T07:38:18.399Z,31.90
2022-07-26T07:40:32.230Z,29.80
2022-07-26T07:42:45.326Z,27.20
2022-07-26T07:44:58.373Z,22.40
2022-07-26T07:47:11.981Z,19.40
2022-07-26T07:49:25.194Z,22.70
2022-07-26T07:51:38.350Z,22.80
2022-07-26T07:53:56.762Z,26.50
2022-07-26T07:56:11.421Z,26.00
2022-07-26T07:58:28.146Z,21.00
2022-07-26T08:00:41.858Z,51.10
2022-07-26T08:02:54.894Z,55.30
2022-07-26T08:05:14.194Z,52.90
2022-07-26T08:07:32.901Z,73.00
2022-07-26T08:09:49.489Z,84.90
2022-07-26T08:12:02.449Z,94.10
2022-07-26T08:14:15.577Z,81.50
2022-07-26T08:16:31.183Z,55.40
2022-07-26T08:18:56.266Z,65.50
2022-07-26T08:21:10.971Z,40.10
2022-07-26T08:23:26.354Z,47.80
2022-07-26T08:25:50.105Z,59.80
2022-07-26T08:28:15.474Z,50.10
2022-07-26T08:30:42.274Z,71.60
2022-07-26T08:32:55.309Z,74.00
2022-07-26T08:35:17.388Z,69.60
2022-07-26T08:37:32.559Z,74.70
2022-07-26T08:39:45.548Z,68.80
2022-07-26T08:41:58.567Z,48.90
2022-07-26T08:44:15.687Z,31.90
2022-07-26T08:46:29.673Z,30.00
2022-07-26T08:48:42.673Z,22.10
2022-07-26T08:50:56.391Z,20.90
2022-07-26T08:53:10.543Z,33.60
2022-07-26T08:55:25.324Z,32.20
2022-07-26T08:57:38.387Z,46.20
2022-07-26T09:00:11.651Z,41.80
2022-07-26T09:02:25.105Z,46.20
2022-07-26T09:04:44.521Z,47.30
2022-07-26T09:07:07.393Z,27.20
2022-07-26T09:09:20.397Z,21.20
2022-07-26T09:11:37.891Z,28.00
2022-07-26T09:13:59.115Z,28.10
2022-07-26T09:16:18.583Z,20.20
2022-07-26T09:18:35.697Z,23.10
2022-07-26T09:20:53.042Z,28.10
2022-07-26T09:23:08.531Z,12.00
2022-07-26T09:25:32.278Z,23.90
2022-07-26T09:27:45.325Z,21.10
2022-07-26T09:29:59.063Z,21.50
2022-07-26T09:32:23.067Z,21.80
2022-07-26T09:34:36.659Z,13.10
2022-07-26T09:36:58.868Z,9.50
2022-07-26T09:39:12.397Z,13.10
2022-07-26T09:41:27.910Z,12.20
2022-07-26T09:43:44.889Z,15.00
2022-07-26T09:46:09.239Z,13.00
2022-07-26T09:48:59.223Z,18.00
2022-07-26T09:51:06.135Z,11.70
2022-07-26T09:53:19.364Z,13.40
2022-07-26T09:55:42.379Z,13.20
2022-07-26T09:57:58.591Z,10.20
2022-07-26T10:00:14.062Z,9.40
2022-07-26T10:02:27.222Z,12.50
2022-07-26T10:04:40.554Z,97.20
2022-07-26T10:06:53.750Z,139.20
2022-07-26T10:09:07.554Z,141.40
2022-07-26T10:11:22.307Z,89.80
2022-07-26T10:13:35.662Z,96.40
2022-07-26T10:15:50.724Z,78.30
2022-07-26T10:18:03.953Z,74.10
2022-07-26T10:20:51.353Z,48.10
2022-07-26T10:23:04.517Z,32.10
2022-07-26T10:25:51.951Z,34.20
2022-07-26T10:28:11.978Z,24.30
2022-07-26T10:30:35.562Z,21.90
2022-07-26T10:33:00.847Z,15.30
2022-07-26T10:35:35.735Z,16.80
2022-07-26T10:38:04.669Z,20.60
2022-07-26T10:40:31.439Z,22.30
2022-07-26T10:42:51.441Z,23.10
2022-07-26T10:45:23.204Z,15.80
2022-07-26T10:47:36.218Z,17.80
2022-07-26T10:50:02.500Z,11.70
2022-07-26T10:52:19.780Z,17.50
2022-07-26T10:54:33.180Z,18.20
2022-07-26T10:56:46.690Z,15.60
2022-07-26T10:59:00.235Z,13.50
2022-07-26T11:01:13.347Z,17.40
2022-07-26T11:03:26.606Z,9.80
2022-07-26T11:05:39.740Z,8.90
2022-07-26T11:08:01.236Z,8.70
2022-07-26T11:10:15.082Z,9.50
2022-07-26T11:12:28.498Z,8.60
2022-07-26T11:14:45.035Z,10.20
2022-07-26T11:17:01.154Z,10.10
2022-07-26T11:19:25.937Z,8.70
2022-07-26T11:21:39.004Z,12.70
2022-07-26T11:23:53.233Z,12.70
2022-07-26T11:26:22.585Z,7.40
2022-07-26T11:28:45.948Z,13.90
2022-07-26T11:31:04.408Z,11.20
2022-07-26T11:33:19.547Z,8.30
2022-07-26T11:35:32.990Z,11.40
2022-07-26T11:38:02.597Z,10.40
2022-07-26T11:40:22.714Z,9.00
2022-07-26T11:42:35.665Z,9.10
2022-07-26T11:44:55.066Z,12.50
2022-07-26T11:47:17.007Z,8.10
2022-07-26T11:52:05.840Z,9.80
2022-07-26T11:54:18.862Z,12.20
2022-07-26T11:56:33.613Z,13.00
2022-07-26T11:58:48.550Z,14.50
2022-07-26T12:01:01.810Z,12.70
2022-07-26T12:03:14.766Z,10.40
2022-07-26T12:05:31.557Z,10.80
2022-07-26T12:07:55.821Z,8.10
2022-07-26T12:10:09.274Z,10.70
2022-07-26T12:12:29.900Z,22.20
2022-07-26T12:14:43.645Z,24.10
2022-07-26T12:16:56.703Z,16.10
2022-07-26T12:19:11.527Z,23.00
2022-07-26T12:21:24.701Z,169.50
2022-07-26T12:23:52.381Z,107.50
2022-07-26T12:26:25.223Z,18.80
2022-07-26T12:31:00.853Z,14.00
2022-07-26T12:33:13.967Z,44.00
2022-07-26T12:35:36.703Z,34.70
2022-07-26T12:40:12.178Z,39.20
2022-07-26T12:42:36.255Z,33.40
2022-07-26T12:44:49.260Z,11.60
2022-07-26T12:47:02.259Z,8.80
2022-07-26T12:49:15.476Z,9.80
2022-07-26T12:51:28.770Z,37.60
2022-07-26T12:53:44.399Z,58.50
2022-07-26T12:55:57.472Z,65.90
2022-07-26T12:58:11.240Z,75.60
2022-07-26T13:00:24.611Z,88.90
2022-07-26T13:02:37.698Z,109.60
2022-07-26T13:04:52.657Z,102.70
2022-07-26T13:07:07.986Z,63.00
2022-07-26T13:09:20.991Z,28.70
2022-07-26T13:11:34.352Z,25.10
2022-07-26T13:13:47.786Z,26.00
2022-07-26T13:16:00.865Z,14.60
2022-07-26T13:18:14.611Z,16.30
2022-07-26T13:20:27.748Z,18.50
2022-07-26T13:22:40.921Z,12.50
2022-07-26T13:24:54.159Z,12.10
2022-07-26T13:27:08.307Z,11.40
2022-07-26T13:29:21.339Z,9.00
2022-07-26T13:31:34.865Z,8.80
2022-07-26T13:33:48.012Z,7.00
2022-07-26T13:36:00.951Z,5.60
2022-07-26T13:38:13.947Z,9.50
2022-07-26T13:40:31.254Z,8.90
2022-07-26T13:42:44.923Z,5.20
2022-07-26T13:44:58.303Z,16.10
2022-07-26T13:47:11.438Z,11.10
2022-07-26T13:49:24.458Z,26.70
2022-07-26T13:51:55.665Z,21.30
2022-07-26T13:54:09.031Z,18.70
2022-07-26T13:56:22.042Z,19.00
2022-07-26T13:58:35.205Z,17.40
2022-07-26T14:00:48.493Z,18.20
2022-07-26T14:03:02.627Z,20.70
2022-07-26T14:05:16.188Z,26.80
2022-07-26T14:07:29.407Z,45.90
2022-07-26T14:09:42.351Z,38.80
2022-07-26T14:11:55.797Z,18.10
2022-07-26T14:14:09.831Z,19.40
2022-07-26T14:16:23.665Z,17.20
2022-07-26T14:18:36.708Z,25.30
2022-07-26T14:20:50.325Z,34.40
2022-07-26T14:23:03.569Z,26.20
2022-07-26T14:25:16.843Z,36.00
2022-07-26T14:27:29.851Z,27.20
2022-07-26T14:29:42.875Z,22.30
2022-07-26T14:31:56.002Z,22.60
2022-07-26T14:34:09.537Z,18.30
2022-07-26T14:36:22.702Z,48.70
2022-07-26T14:38:35.733Z,26.80
2022-07-26T14:40:48.909Z,23.70
2022-07-26T14:43:02.786Z,19.00
2022-07-26T14:45:16.972Z,18.70
2022-07-26T14:47:30.434Z,25.60
2022-07-26T14:49:43.521Z,24.10
2022-07-26T14:51:57.083Z,34.00
2022-07-26T14:54:11.103Z,24.40
2022-07-26T14:56:24.797Z,25.50
2022-07-26T14:58:37.865Z,50.10
2022-07-26T15:00:51.242Z,70.80
2022-07-26T15:03:04.841Z,71.40
2022-07-26T15:05:19.594Z,44.60
2022-07-26T15:07:32.780Z,7.30
2022-07-26T15:09:46.065Z,10.20
2022-07-26T15:11:59.431Z,11.50
2022-07-26T15:14:13.270Z,12.70
2022-07-26T15:16:27.218Z,7.80
2022-07-26T15:18:40.477Z,9.30
2022-07-26T15:20:53.691Z,14.30
2022-07-26T15:23:07.282Z,4.80
2022-07-26T15:25:21.959Z,5.10
2022-07-26T15:27:35.068Z,10.50
2022-07-26T15:29:49.782Z,6.60
2022-07-26T15:32:02.974Z,12.20
2022-07-26T15:34:16.387Z,13.90
2022-07-26T15:36:29.340Z,18.30
2022-07-26T15:38:46.313Z,22.80
2022-07-26T15:40:59.511Z,24.70
2022-07-26T15:43:13.325Z,29.60
2022-07-26T15:45:27.038Z,40.80
2022-07-26T15:48:01.299Z,35.80
2022-07-26T15:50:15.762Z,38.80
2022-07-26T15:52:28.937Z,29.50
2022-07-26T15:54:44.104Z,15.70
2022-07-26T15:56:57.574Z,13.10
2022-07-26T15:59:11.173Z,11.40
2022-07-26T16:01:24.443Z,13.70
2022-07-26T16:03:38.571Z,16.50
2022-07-26T16:05:53.148Z,18.80
2022-07-26T16:08:07.391Z,18.40
2022-07-26T16:10:20.593Z,13.80
2022-07-26T16:12:33.935Z,16.70
2022-07-26T16:14:47.780Z,18.40
2022-07-26T16:17:00.966Z,23.20
2022-07-26T16:19:14.205Z,20.80
2022-07-26T16:21:28.087Z,17.50
2022-07-26T16:23:41.386Z,16.70
2022-07-26T16:25:54.587Z,31.60
2022-07-26T16:28:07.882Z,12.90
2022-07-26T16:30:21.250Z,12.30
2022-07-26T16:32:34.389Z,9.10
2022-07-26T16:34:47.604Z,15.20
2022-07-26T16:37:00.574Z,18.60
2022-07-26T16:39:14.024Z,25.90
2022-07-26T16:41:27.529Z,20.30
2022-07-26T16:43:40.503Z,12.40
2022-07-26T16:45:53.684Z,11.80
2022-07-26T16:48:06.887Z,19.60
2022-07-26T16:50:27.171Z,13.70
2022-07-26T16:52:41.435Z,17.80
2022-07-26T16:54:54.510Z,12.70
2022-07-26T16:57:07.709Z,17.80
2022-07-26T16:59:20.853Z,8.00
2022-07-26T17:01:34.012Z,9.60
2022-07-26T17:03:47.053Z,16.60
2022-07-26T17:06:05.806Z,17.50
2022-07-26T17:08:19.591Z,7.60
2022-07-26T17:10:32.770Z,11.50
2022-07-26T17:12:45.777Z,12.20
2022-07-26T17:15:00.505Z,10.20
2022-07-26T17:17:13.720Z,6.90
2022-07-26T17:19:26.778Z,14.60
2022-07-26T17:21:39.922Z,21.70
2022-07-26T17:23:54.006Z,16.20
2022-07-26T17:26:07.030Z,14.80
2022-07-26T17:28:20.281Z,6.70
2022-07-26T17:30:33.376Z,18.00
2022-07-26T17:32:46.649Z,20.90
2022-07-26T17:34:59.712Z,17.40
2022-07-26T17:37:13.115Z,15.80
2022-07-26T17:39:40.360Z,10.90
2022-07-26T17:42:00.233Z,12.30
2022-07-26T17:44:13.612Z,14.90
2022-07-26T17:46:27.046Z,15.60
2022-07-26T17:48:40.304Z,11.20
2022-07-26T17:50:53.677Z,12.60
2022-07-26T17:53:06.698Z,10.40
2022-07-26T17:55:20.131Z,10.30
2022-07-26T17:57:33.600Z,13.20
2022-07-26T17:59:46.529Z,15.50
2022-07-26T18:01:59.597Z,10.80
2022-07-26T18:04:13.008Z,16.80
2022-07-26T18:06:26.046Z,10.10
2022-07-26T18:08:39.151Z,10.80
2022-07-26T18:10:52.283Z,12.20
2022-07-26T18:13:06.084Z,16.30
2022-07-26T18:15:19.357Z,8.00
2022-07-26T18:17:32.391Z,22.60
2022-07-26T18:19:45.367Z,11.30
2022-07-26T18:22:00.746Z,10.00
2022-07-26T18:24:17.544Z,10.50
2022-07-26T18:26:30.966Z,5.00
2022-07-26T18:28:44.171Z,10.50
2022-07-26T18:31:02.842Z,9.20
2022-07-26T18:33:15.820Z,8.40
2022-07-26T18:35:29.053Z,6.30
2022-07-26T18:37:41.992Z,4.60
2022-07-26T18:39:57.801Z,8.00
2022-07-26T18:42:11.514Z,9.20
2022-07-26T18:44:25.061Z,3.60
2022-07-26T18:46:38.155Z,4.30
2022-07-26T18:48:51.386Z,4.20
2022-07-26T18:51:04.357Z,8.40
2022-07-26T18:53:20.443Z,9.30
2022-07-26T18:55:34.031Z,2.80
2022-07-26T18:57:48.621Z,7.70
2022-07-26T19:00:02.212Z,6.60
2022-07-26T19:02:15.233Z,7.50
2022-07-26T19:04:28.596Z,6.50
2022-07-26T19:06:42.106Z,10.70
2022-07-26T19:08:55.130Z,4.40
2022-07-26T19:11:08.196Z,4.30
2022-07-26T19:13:21.916Z,9.70
2022-07-26T19:15:35.305Z,3.50
2022-07-26T19:17:48.584Z,5.80
2022-07-26T19:20:02.098Z,5.50
2022-07-26T19:22:15.096Z,9.20
2022-07-26T19:24:28.042Z,8.40
2022-07-26T19:26:41.001Z,4.10
2022-07-26T19:28:54.033Z,2.30
2022-07-26T19:31:07.377Z,6.20
2022-07-26T19:33:20.455Z,7.30
2022-07-26T19:35:33.906Z,4.90
2022-07-26T19:37:47.639Z,10.00
2022-07-26T19:40:02.372Z,5.00
2022-07-26T19:42:15.749Z,6.20
2022-07-26T19:44:28.866Z,3.90
2022-07-26T19:46:41.832Z,9.90
2022-07-26T19:48:55.035Z,7.60
2022-07-26T19:51:08.156Z,8.20
2022-07-26T19:53:21.244Z,6.80
2022-07-26T19:55:34.352Z,11.40
2022-07-26T19:57:47.469Z,10.10
2022-07-26T20:00:01.734Z,6.80
2022-07-26T20:02:24.113Z,5.60
2022-07-26T20:04:37.356Z,3.20
2022-07-26T20:06:50.351Z,3.20
2022-07-26T20:09:03.435Z,5.80
2022-07-26T20:11:16.696Z,8.60
2022-07-26T20:13:29.814Z,11.20
2022-07-26T20:15:43.075Z,9.40
2022-07-26T20:17:56.061Z,7.40
2022-07-26T20:20:10.363Z,16.00
2022-07-26T20:22:24.588Z,6.80
2022-07-26T20:24:39.355Z,6.00
2022-07-26T20:26:52.344Z,9.50
2022-07-26T20:29:05.501Z,8.30
2022-07-26T20:31:18.570Z,7.80
2022-07-26T20:33:31.599Z,7.70
2022-07-26T20:35:44.909Z,7.90
2022-07-26T20:37:57.945Z,4.60
2022-07-26T20:40:13.175Z,9.30
2022-07-26T20:42:28.602Z,22.80
2022-07-26T20:44:41.678Z,15.10
2022-07-26T20:46:55.733Z,8.50
2022-07-26T20:49:09.242Z,5.10
2022-07-26T20:51:22.787Z,8.00
2022-07-26T20:53:35.914Z,7.70
2022-07-26T20:55:49.121Z,7.30
2022-07-26T20:58:02.080Z,9.40
2022-07-26T21:00:18.018Z,6.60
2022-07-26T21:02:31.154Z,8.40
2022-07-26T21:04:44.562Z,8.10
2022-07-26T21:06:57.638Z,12.70
2022-07-26T21:09:11.415Z,8.70
2022-07-26T21:11:25.090Z,11.90
2022-07-26T21:13:38.703Z,13.90
2022-07-26T21:15:54.438Z,18.80
2022-07-26T21:18:07.664Z,9.80
2022-07-26T21:20:20.778Z,8.20
2022-07-26T21:22:33.910Z,10.60
2022-07-26T21:24:47.280Z,13.20
2022-07-26T21:27:00.252Z,11.30
2022-07-26T21:29:13.704Z,11.40
2022-07-26T21:31:27.045Z,10.80
2022-07-26T21:33:40.122Z,10.40
2022-07-26T21:35:53.146Z,10.00
2022-07-26T21:38:06.175Z,10.10
2022-07-26T21:40:20.259Z,6.40
2022-07-26T21:42:33.392Z,6.70
2022-07-26T21:44:46.427Z,4.70
2022-07-26T21:46:59.447Z,5.40
2022-07-26T21:49:12.788Z,9.10
2022-07-26T21:51:26.173Z,4.60
2022-07-26T21:53:39.256Z,2.90
2022-07-26T21:55:52.380Z,2.80
2022-07-26T21:58:05.489Z,3.30
2022-07-26T22:00:20.967Z,6.10
2022-07-26T22:02:34.246Z,12.40
2022-07-26T22:04:47.511Z,4.30
2022-07-26T22:07:01.057Z,2.00
2022-07-26T22:09:14.579Z,6.70
2022-07-26T22:11:27.901Z,7.80
2022-07-26T22:13:41.275Z,4.40
2022-07-26T22:15:54.686Z,6.00
2022-07-26T22:18:09.715Z,5.90
2022-07-26T22:20:23.044Z,10.60
2022-07-26T22:22:36.430Z,7.10
2022-07-26T22:24:49.418Z,9.20
2022-07-26T22:27:02.416Z,3.80
2022-07-26T22:29:15.804Z,6.30
2022-07-26T22:31:28.954Z,7.80
2022-07-26T22:33:42.025Z,3.20
2022-07-26T22:35:55.550Z,4.70
2022-07-26T22:38:10.227Z,5.40
2022-07-26T22:40:23.606Z,7.80
2022-07-26T22:42:36.707Z,5.10
2022-07-26T22:44:49.632Z,4.00
2022-07-26T22:47:02.673Z,10.50
2022-07-26T22:49:15.761Z,3.70
2022-07-26T22:51:29.014Z,2.60
2022-07-26T22:53:42.145Z,10.10
2022-07-26T22:55:55.391Z,6.50
2022-07-26T22:58:08.367Z,4.40
2022-07-26T23:00:23.662Z,2.40
2022-07-26T23:02:36.663Z,2.80
2022-07-26T23:04:49.733Z,4.70
2022-07-26T23:07:02.700Z,2.90
2022-07-26T23:09:17.648Z,3.60
2022-07-26T23:11:31.736Z,8.80
2022-07-26T23:13:45.044Z,5.20
2022-07-26T23:16:01.206Z,7.70
2022-07-26T23:18:14.784Z,3.50
2022-07-26T23:20:27.908Z,3.50
2022-07-26T23:22:43.030Z,9.20
2022-07-26T23:24:56.108Z,4.50
2022-07-26T23:27:09.479Z,8.80
2022-07-26T23:29:22.535Z,9.60
2022-07-26T23:31:35.591Z,3.60
2022-07-26T23:33:52.329Z,4.70
2022-07-26T23:36:07.497Z,2.70
2022-07-26T23:38:20.762Z,5.40
2022-07-26T23:40:33.986Z,2.90
2022-07-26T23:42:47.017Z,5.70
2022-07-26T23:44:59.969Z,8.00
2022-07-26T23:47:13.057Z,5.60
2022-07-26T23:49:26.120Z,3.20
2022-07-26T23:51:40.054Z,20.90
2022-07-26T23:53:53.294Z,9.40
2022-07-26T23:56:06.831Z,6.20
2022-07-26T23:58:19.876Z,6.80
